Upstream stations:
Downstream station:
SHEF ID: QUAO2 Spring River near Quapaw, OK
STATION TYPE:
Regulating: Stage = 20.00, Flow = 33676
PRECIP STAGE STAGE(2) RIV-FLOW BAT-LOAD
in ft ft cfs volt
Ccp-Rev Ccp-Rev Ccp-Rev Ccp-Rev Ccp-Rev
(US/Central)
03/27 00:00 0.00 8.28 8.44 3039 12.02
03/27 01:00 0.00 8.29 8.42 3056 12.01
03/27 02:00 0.00 8.25 8.40 2989 11.99
03/27 03:00 0.00 8.23 8.40 2955 11.97
03/27 04:00 0.00 8.22 8.39 2939 11.98
03/27 05:00 0.00 8.24 8.37 2972 11.97
03/27 06:00 0.00 8.22 8.36 2939 11.92
03/27 07:00 0.00 8.20 8.35 2906 11.94
03/27 08:00 0.00 8.16 8.34 2841 11.90
03/27 09:00 0.00 8.16 8.33 2841 11.96
03/27 10:00 0.00 8.13 8.31 2792 12.62
03/27 11:00 0.00 8.16 8.29 2841 12.96
03/27 12:00 0.00 8.12 8.26 2776 12.92
03/27 13:00 0.00 8.13 8.26 2792 12.50
03/27 14:00 0.00 8.09 8.20 2729 12.40
03/27 15:00 0.00 8.09 8.23 2729 12.27
03/27 16:00 0.00 8.04 8.20 2650 12.40
03/27 17:00 0.00 8.04 8.20 2650 12.40
03/27 18:00 0.00 8.04 8.11 2650 12.21
03/27 19:00 0.00 8.02 8.18 2619 12.39
03/27 20:00 0.00 8.00 8.17 2588 12.13
03/27 21:00 0.00 8.00 8.16 2588 12.03
03/27 22:00 0.00 8.00 8.15 2588 12.02
03/27 23:00 0.00 7.97 8.14 2542 12.01